Time;durP1;ratioP1;P1;durP2;ratioP2;P2;SDS_P1;SDS_P2;PMS_P1;PMS_P2;Temp;Humidity;BMP_temperature;BMP_pressure;BME280_temperature;BME280_humidity;BME280_pressure;Samples;Min_cycle;Max_cycle;Signal;HPM_P1;HPM_P2
2023/04/04 00:00:13;;;;;;;4.05;2.90;;;-1.00;99.90;;;;;;5021968;28;20121;-41
2023/04/04 00:02:39;;;;;;;3.60;2.70;;;-1.00;99.90;;;;;;5019787;28;20494;-41
2023/04/04 00:05:06;;;;;;;3.03;2.72;;;-1.10;99.90;;;;;;5026297;28;20386;-41
2023/04/04 00:07:32;;;;;;;6.95;2.90;;;-1.10;99.90;;;;;;5028240;28;20033;-41
2023/04/04 00:09:57;;;;;;;4.63;2.85;;;-1.10;99.90;;;;;;5030391;28;20532;-41
2023/04/04 00:12:23;;;;;;;5.05;2.92;;;-1.20;99.90;;;;;;5021445;28;20437;-40
2023/04/04 00:14:50;;;;;;;3.75;3.03;;;-1.20;99.90;;;;;;5029579;28;20075;-41
2023/04/04 00:17:15;;;;;;;4.10;3.05;;;-1.30;99.90;;;;;;5017238;28;20475;-40
2023/04/04 00:19:41;;;;;;;5.78;3.22;;;-1.40;99.90;;;;;;5013362;28;20083;-41
2023/04/04 00:22:07;;;;;;;3.20;2.90;;;-1.30;99.90;;;;;;5019529;28;20064;-40
2023/04/04 00:24:33;;;;;;;4.25;2.70;;;-1.40;99.90;;;;;;5022644;28;20479;-41
2023/04/04 00:26:59;;;;;;;4.55;2.95;;;-1.40;99.90;;;;;;5022815;28;20029;-41
2023/04/04 00:29:24;;;;;;;4.28;3.30;;;-1.40;99.90;;;;;;5028474;28;20375;-41
2023/04/04 00:31:50;;;;;;;3.13;2.72;;;-1.50;99.90;;;;;;5020309;28;20037;-41
2023/04/04 00:34:16;;;;;;;3.03;2.78;;;-1.50;99.90;;;;;;5024100;28;20554;-41
2023/04/04 00:36:42;;;;;;;4.47;3.17;;;-1.60;99.90;;;;;;5023042;28;20470;-41
2023/04/04 00:39:07;;;;;;;3.10;2.75;;;-1.60;99.90;;;;;;5029332;28;20676;-40
2023/04/04 00:41:33;;;;;;;3.15;2.95;;;-1.60;99.90;;;;;;5019140;28;20033;-41
2023/04/04 00:44:00;;;;;;;3.03;2.72;;;-1.60;99.90;;;;;;5023291;28;20437;-41
2023/04/04 00:46:26;;;;;;;4.40;3.47;;;-1.60;99.90;;;;;;5021314;28;20532;-41
2023/04/04 00:48:53;;;;;;;4.28;2.55;;;-1.60;99.90;;;;;;5021367;28;20358;-41
2023/04/04 00:51:19;;;;;;;3.22;2.80;;;-1.60;99.90;;;;;;5022880;28;20540;-41
2023/04/04 00:53:46;;;;;;;2.85;2.65;;;-1.60;99.90;;;;;;5021423;28;20026;-41
2023/04/04 00:56:13;;;;;;;4.67;3.30;;;-1.60;99.90;;;;;;5021994;28;20677;-41
2023/04/04 00:58:40;;;;;;;6.00;2.90;;;-1.60;99.90;;;;;;5025016;28;20025;-41
2023/04/04 01:01:06;;;;;;;4.60;3.92;;;-1.60;99.90;;;;;;5021830;28;20422;-41
2023/04/04 01:03:32;;;;;;;3.53;2.97;;;-1.70;99.90;;;;;;5023963;28;20029;-41
2023/04/04 01:05:58;;;;;;;3.20;2.78;;;-1.60;99.90;;;;;;5026884;28;20128;-41
2023/04/04 01:08:26;;;;;;;3.90;2.78;;;-1.60;99.90;;;;;;5025547;28;20084;-41
2023/04/04 01:10:51;;;;;;;3.67;3.35;;;-1.70;99.90;;;;;;5019379;28;20022;-41
2023/04/04 01:13:17;;;;;;;4.13;3.25;;;-1.70;99.90;;;;;;5018479;28;20037;-41
2023/04/04 01:15:43;;;;;;;3.38;3.13;;;-1.70;99.90;;;;;;5022474;28;20104;-41
2023/04/04 01:18:11;;;;;;;4.63;3.33;;;-1.80;99.90;;;;;;5017573;28;20137;-41
2023/04/04 01:20:45;;;;;;;3.95;3.47;;;-1.70;99.90;;;;;;5021419;28;20586;-41
2023/04/04 01:23:12;;;;;;;4.60;3.80;;;-1.80;99.90;;;;;;5022046;28;20041;-40
2023/04/04 01:25:37;;;;;;;5.78;3.80;;;-1.80;99.90;;;;;;5024404;28;20041;-41
2023/04/04 01:28:03;;;;;;;4.03;3.45;;;-1.90;99.90;;;;;;5022139;28;20470;-40
2023/04/04 01:30:32;;;;;;;4.63;3.80;;;-1.80;99.90;;;;;;5023720;28;21840;-38
2023/04/04 01:33:10;;;;;;;10.82;3.83;;;-1.90;99.90;;;;;;5021694;28;20464;-40
2023/04/04 01:36:12;;;;;;;4.55;3.22;;;-1.90;99.90;;;;;;5026686;28;20029;-40
2023/04/04 01:38:37;;;;;;;5.03;3.45;;;-1.90;99.90;;;;;;5027417;28;20413;-40
2023/04/04 01:41:07;;;;;;;3.03;2.72;;;-1.90;99.90;;;;;;5030368;28;20045;-40
2023/04/04 01:43:33;;;;;;;3.22;2.85;;;-1.90;99.90;;;;;;5025130;28;20124;-40
2023/04/04 01:45:59;;;;;;;5.72;3.63;;;-1.80;99.90;;;;;;5029893;28;20112;-40
2023/04/04 01:48:25;;;;;;;5.65;3.55;;;-1.80;99.90;;;;;;5022331;28;20033;-40
2023/04/04 01:50:51;;;;;;;6.40;2.70;;;-1.90;99.90;;;;;;5025794;28;20124;-40
2023/04/04 01:53:17;;;;;;;6.55;2.80;;;-1.90;99.90;;;;;;5029965;28;20115;-40
2023/04/04 01:55:42;;;;;;;5.90;3.60;;;-2.00;99.90;;;;;;5021307;28;20031;-41
2023/04/04 01:58:08;;;;;;;3.85;3.13;;;-2.10;99.90;;;;;;5030113;28;20025;-40
2023/04/04 02:00:34;;;;;;;5.30;3.40;;;-2.10;99.90;;;;;;5013026;28;20033;-41
2023/04/04 02:03:00;;;;;;;4.75;3.08;;;-2.10;99.90;;;;;;5020697;28;20443;-40
2023/04/04 02:05:26;;;;;;;5.57;3.85;;;-2.00;99.90;;;;;;5029443;28;20033;-40
2023/04/04 02:07:51;;;;;;;5.40;3.40;;;-1.80;99.90;;;;;;5030138;28;20051;-40
2023/04/04 02:10:17;;;;;;;5.07;3.42;;;-1.80;99.90;;;;;;5029642;28;20660;-40
2023/04/04 02:12:43;;;;;;;3.20;2.90;;;-1.90;99.90;;;;;;5031367;28;20029;-40
2023/04/04 02:15:09;;;;;;;3.47;3.17;;;-2.00;99.90;;;;;;5028853;28;20053;-40
2023/04/04 02:17:34;;;;;;;2.97;2.78;;;-2.10;99.90;;;;;;5027267;28;20029;-40
2023/04/04 02:20:00;;;;;;;4.85;3.80;;;-2.00;99.90;;;;;;5029664;28;20026;-41
2023/04/04 02:22:26;;;;;;;3.53;3.22;;;-2.00;99.90;;;;;;5022377;28;21208;-40
2023/04/04 02:24:56;;;;;;;4.00;3.00;;;-2.00;99.90;;;;;;5023032;28;20034;-40
2023/04/04 02:27:22;;;;;;;2.88;2.67;;;-2.10;99.90;;;;;;5022371;28;20136;-40
2023/04/04 02:29:48;;;;;;;4.10;3.28;;;-2.20;99.90;;;;;;5022200;28;20064;-40
2023/04/04 02:32:13;;;;;;;6.72;3.58;;;-2.20;99.90;;;;;;5020072;28;20439;-41
2023/04/04 02:34:39;;;;;;;4.35;3.28;;;-2.20;99.90;;;;;;5024181;28;20426;-40
2023/04/04 02:37:05;;;;;;;9.20;3.28;;;-2.20;99.90;;;;;;5029530;28;20036;-40
2023/04/04 02:39:30;;;;;;;3.35;3.08;;;-2.30;99.90;;;;;;5029053;28;20025;-41
2023/04/04 02:41:56;;;;;;;6.45;4.13;;;-2.30;99.90;;;;;;5023510;28;20924;-40
2023/04/04 02:44:22;;;;;;;6.55;3.38;;;-2.30;99.90;;;;;;5028018;28;20021;-41
2023/04/04 02:46:48;;;;;;;4.55;3.72;;;-2.30;99.90;;;;;;5025169;28;20469;-40
2023/04/04 02:49:14;;;;;;;8.02;4.25;;;-2.40;99.90;;;;;;5029229;28;20032;-40
2023/04/04 02:51:39;;;;;;;4.28;3.40;;;-2.40;99.90;;;;;;5022893;28;20096;-40
2023/04/04 02:54:05;;;;;;;5.25;3.40;;;-2.40;99.90;;;;;;5024349;28;20029;-40
2023/04/04 02:56:31;;;;;;;4.55;3.20;;;-2.40;99.90;;;;;;5021561;28;20029;-41
2023/04/04 02:58:57;;;;;;;5.85;3.42;;;-2.40;99.90;;;;;;5030954;28;20491;-40
2023/04/04 03:01:23;;;;;;;6.88;3.70;;;-2.50;99.90;;;;;;5037497;28;20088;-40
2023/04/04 03:03:48;;;;;;;4.18;3.78;;;-2.60;99.90;;;;;;5027214;28;20029;-40
2023/04/04 03:06:14;;;;;;;4.13;3.58;;;-2.60;99.90;;;;;;5023240;28;20111;-40
2023/04/04 03:08:40;;;;;;;5.22;4.00;;;-2.50;99.90;;;;;;5029026;28;20037;-40
2023/04/04 03:11:05;;;;;;;5.03;3.53;;;-2.50;99.90;;;;;;5024577;28;20052;-40
2023/04/04 03:13:31;;;;;;;4.05;3.75;;;-2.60;99.90;;;;;;5025025;28;20025;-40
2023/04/04 03:16:07;;;;;;;7.30;3.83;;;-2.60;99.90;;;;;;5023502;28;20036;-40
2023/04/04 03:18:33;;;;;;;4.18;3.80;;;-2.60;99.90;;;;;;5029907;28;20029;-40
2023/04/04 03:20:59;;;;;;;4.32;3.92;;;-2.60;99.90;;;;;;5027264;28;20036;-40
2023/04/04 03:23:24;;;;;;;2.97;2.78;;;-2.70;99.90;;;;;;5020317;28;20034;-41
2023/04/04 03:25:50;;;;;;;6.38;3.80;;;-2.70;99.90;;;;;;5015798;28;20534;-40
2023/04/04 03:28:16;;;;;;;4.28;3.72;;;-2.70;99.90;;;;;;5017811;28;20032;-40
2023/04/04 03:30:41;;;;;;;3.45;3.03;;;-2.70;99.90;;;;;;5026624;28;20104;-39
2023/04/04 03:33:08;;;;;;;3.65;3.40;;;-2.70;99.90;;;;;;5024821;28;20031;-40
2023/04/04 03:35:40;;;;;;;3.97;3.67;;;-2.80;99.90;;;;;;5021022;28;20025;-40
2023/04/04 03:38:10;;;;;;;3.38;3.10;;;-2.80;99.90;;;;;;5024151;28;20033;-41
2023/04/04 03:40:35;;;;;;;2.78;2.45;;;-2.80;99.90;;;;;;5027685;28;20040;-40
2023/04/04 03:43:01;;;;;;;3.17;2.88;;;-2.80;99.90;;;;;;5020889;28;20037;-40
2023/04/04 03:45:29;;;;;;;3.40;2.75;;;-2.80;99.90;;;;;;5025248;28;20127;-40
2023/04/04 03:47:55;;;;;;;4.22;3.17;;;-2.80;99.90;;;;;;5022612;28;20040;-40
2023/04/04 03:50:20;;;;;;;3.88;3.55;;;-2.80;99.90;;;;;;5028296;28;20045;-40
2023/04/04 03:52:47;;;;;;;5.07;3.70;;;-2.70;99.90;;;;;;5022087;28;20507;-40
2023/04/04 03:55:12;;;;;;;2.72;2.42;;;-2.80;99.90;;;;;;5015516;28;20456;-40
2023/04/04 03:57:38;;;;;;;3.97;3.22;;;-2.80;99.90;;;;;;5027654;28;20032;-40
2023/04/04 04:00:04;;;;;;;3.53;3.22;;;-2.80;99.90;;;;;;5018536;28;20391;-40
2023/04/04 04:02:30;;;;;;;4.97;2.97;;;-2.80;99.90;;;;;;5038994;28;20382;-40
2023/04/04 04:04:56;;;;;;;5.88;3.50;;;-2.70;99.90;;;;;;5031907;28;20036;-40
2023/04/04 04:07:21;;;;;;;6.18;3.65;;;-2.70;99.90;;;;;;5024805;28;20536;-40
2023/04/04 04:09:47;;;;;;;5.10;4.00;;;-2.80;99.90;;;;;;5020094;28;20044;-40
2023/04/04 04:12:13;;;;;;;2.92;2.72;;;-2.80;99.90;;;;;;5022613;28;20041;-40
2023/04/04 04:14:38;;;;;;;3.70;2.95;;;-2.90;99.90;;;;;;5028735;28;20542;-40
2023/04/04 04:17:04;;;;;;;3.42;3.05;;;-2.80;99.90;;;;;;5017967;28;20029;-41
2023/04/04 04:19:30;;;;;;;5.53;2.70;;;-2.80;99.90;;;;;;5025471;28;20024;-41
2023/04/04 04:21:56;;;;;;;5.65;3.50;;;-2.80;99.90;;;;;;5019759;28;20124;-40
2023/04/04 04:24:22;;;;;;;3.47;3.13;;;-2.70;99.90;;;;;;5025383;28;20108;-40
2023/04/04 04:26:47;;;;;;;3.58;3.25;;;-2.70;99.90;;;;;;5022455;28;20034;-40
2023/04/04 04:29:13;;;;;;;6.95;3.60;;;-2.70;99.90;;;;;;5020657;28;20034;-40
2023/04/04 04:31:38;;;;;;;3.22;2.92;;;-2.80;99.90;;;;;;5023925;28;20038;-40
2023/04/04 04:34:06;;;;;;;3.40;3.10;;;-2.80;99.90;;;;;;5031447;28;20041;-39
2023/04/04 04:36:32;;;;;;;4.50;2.75;;;-2.70;99.90;;;;;;5020627;28;20043;-39
2023/04/04 04:38:57;;;;;;;3.35;2.75;;;-2.70;99.90;;;;;;5020869;28;20071;-40
2023/04/04 04:41:23;;;;;;;4.32;3.50;;;-2.70;99.90;;;;;;5023454;28;20336;-40
2023/04/04 04:43:48;;;;;;;3.78;3.42;;;-2.80;99.90;;;;;;5026181;28;20029;-40
2023/04/04 04:46:14;;;;;;;6.85;3.50;;;-2.80;99.90;;;;;;5018305;28;20452;-40
2023/04/04 04:48:40;;;;;;;4.75;2.83;;;-2.70;99.90;;;;;;5027750;28;20025;-40
2023/04/04 04:51:06;;;;;;;4.15;3.08;;;-2.80;99.90;;;;;;5023730;28;20124;-40
2023/04/04 04:53:31;;;;;;;4.22;3.60;;;-2.70;99.90;;;;;;5021504;28;20360;-40
2023/04/04 04:55:57;;;;;;;8.68;3.70;;;-2.80;99.90;;;;;;5024427;28;20453;-40
2023/04/04 04:58:23;;;;;;;3.38;3.00;;;-2.80;99.90;;;;;;5021229;28;20034;-40
2023/04/04 05:00:48;;;;;;;4.88;3.38;;;-2.80;99.90;;;;;;5020542;28;20513;-41
2023/04/04 05:03:14;;;;;;;3.60;3.13;;;-2.80;99.90;;;;;;5025046;28;20094;-40
2023/04/04 05:05:42;;;;;;;4.10;2.47;;;-2.80;99.90;;;;;;5017119;28;20426;-40
2023/04/04 05:08:07;;;;;;;4.63;3.78;;;-2.90;99.90;;;;;;5031719;28;20091;-40
2023/04/04 05:10:33;;;;;;;4.07;3.67;;;-2.80;99.90;;;;;;5025375;28;20050;-40
2023/04/04 05:12:58;;;;;;;6.28;2.80;;;-2.80;99.90;;;;;;5029067;28;20524;-40
2023/04/04 05:15:31;;;;;;;3.35;3.05;;;-2.80;99.90;;;;;;5031001;28;20437;-40
2023/04/04 05:17:57;;;;;;;5.15;3.50;;;-2.80;99.90;;;;;;5027652;28;20084;-40
2023/04/04 05:20:22;;;;;;;4.60;3.63;;;-2.70;99.90;;;;;;5025627;28;20034;-40
2023/04/04 05:22:48;;;;;;;3.55;3.20;;;-2.60;99.90;;;;;;5027814;28;20151;-40
2023/04/04 05:25:14;;;;;;;3.60;3.20;;;-2.60;99.90;;;;;;5028056;28;20439;-40
2023/04/04 05:27:40;;;;;;;4.93;3.80;;;-2.60;99.90;;;;;;5031014;28;20390;-40
2023/04/04 05:30:06;;;;;;;4.65;3.45;;;-2.50;99.90;;;;;;5023734;28;20068;-40
2023/04/04 05:32:32;;;;;;;3.78;3.28;;;-2.40;99.90;;;;;;5023768;28;20125;-40
2023/04/04 05:34:58;;;;;;;4.25;3.58;;;-2.30;99.90;;;;;;5024793;28;20080;-40
2023/04/04 05:37:24;;;;;;;5.28;3.45;;;-2.30;99.90;;;;;;5023120;28;20438;-40
2023/04/04 05:39:50;;;;;;;4.28;3.45;;;-2.30;99.90;;;;;;5031038;28;20409;-41
2023/04/04 05:42:15;;;;;;;4.55;3.35;;;-2.20;99.90;;;;;;5026782;28;20060;-41
2023/04/04 05:44:41;;;;;;;4.50;3.30;;;-2.20;99.90;;;;;;5019122;28;20450;-40
2023/04/04 05:47:07;;;;;;;4.22;3.47;;;-2.10;99.90;;;;;;5034304;28;20037;-40
2023/04/04 05:49:32;;;;;;;6.13;3.55;;;-2.00;99.90;;;;;;5022244;28;20037;-40
2023/04/04 05:51:58;;;;;;;13.32;4.00;;;-2.00;99.90;;;;;;5024658;28;20050;-40
2023/04/04 05:54:24;;;;;;;4.20;3.40;;;-1.90;99.90;;;;;;5029269;28;20101;-40
2023/04/04 05:56:49;;;;;;;5.13;3.28;;;-1.80;99.90;;;;;;5020546;28;20056;-40
2023/04/04 05:59:15;;;;;;;4.47;2.97;;;-1.80;99.90;;;;;;5026270;28;20026;-40
2023/04/04 06:01:41;;;;;;;3.35;3.13;;;-1.70;99.90;;;;;;5028911;28;20034;-40
2023/04/04 06:04:06;;;;;;;3.53;3.00;;;-1.60;99.90;;;;;;5032529;28;20036;-41
2023/04/04 06:06:33;;;;;;;6.15;3.30;;;-1.60;99.90;;;;;;5019391;28;20025;-40
2023/04/04 06:08:59;;;;;;;3.42;3.17;;;-1.50;99.90;;;;;;5028273;28;20036;-40
2023/04/04 06:11:25;;;;;;;4.28;3.30;;;-1.40;99.90;;;;;;5027124;28;20033;-40
2023/04/04 06:13:51;;;;;;;4.65;3.08;;;-1.30;99.90;;;;;;5025746;28;20120;-40
2023/04/04 06:16:17;;;;;;;2.28;2.17;;;-1.20;99.90;;;;;;5029459;28;20145;-40
2023/04/04 06:18:43;;;;;;;5.10;3.03;;;-1.10;99.90;;;;;;5027724;28;20113;-40
2023/04/04 06:21:08;;;;;;;6.20;4.38;;;-1.10;99.90;;;;;;5033981;28;20033;-40
2023/04/04 06:23:36;;;;;;;4.15;3.47;;;-1.00;99.90;;;;;;5026108;28;20064;-40
2023/04/04 06:26:02;;;;;;;3.20;3.00;;;-0.90;99.90;;;;;;5032066;28;20029;-41
2023/04/04 06:28:27;;;;;;;3.55;3.25;;;-0.90;99.90;;;;;;5028118;28;20112;-40
2023/04/04 06:30:53;;;;;;;6.32;4.05;;;-0.80;99.90;;;;;;5023071;28;20053;-39
2023/04/04 06:33:19;;;;;;;5.95;4.28;;;-0.70;99.90;;;;;;5022798;28;20556;-41
2023/04/04 06:35:44;;;;;;;5.30;3.47;;;-0.70;99.90;;;;;;5032172;28;20028;-41
2023/04/04 06:38:10;;;;;;;2.63;2.42;;;-0.50;99.90;;;;;;5021048;28;20212;-41
2023/04/04 06:40:36;;;;;;;3.95;3.58;;;-0.40;99.90;;;;;;5032146;28;20079;-40
2023/04/04 06:43:02;;;;;;;5.60;3.97;;;-0.30;99.90;;;;;;5023262;28;20415;-40
2023/04/04 06:45:28;;;;;;;4.05;3.08;;;-0.30;99.90;;;;;;5024732;28;20100;-41
2023/04/04 06:47:54;;;;;;;4.18;3.53;;;-0.30;99.90;;;;;;5027068;28;20033;-40
2023/04/04 06:50:22;;;;;;;4.22;3.75;;;-0.10;99.90;;;;;;5023343;28;20087;-41
2023/04/04 06:52:49;;;;;;;4.38;3.92;;;-0.10;99.90;;;;;;5019731;28;20414;-41
2023/04/04 06:55:15;;;;;;;4.43;3.63;;;0.00;99.90;;;;;;5026313;28;20030;-40
2023/04/04 06:57:41;;;;;;;4.18;3.05;;;0.10;99.90;;;;;;5027986;28;20022;-40
2023/04/04 07:00:08;;;;;;;4.07;3.42;;;0.10;99.90;;;;;;5023025;28;21313;-41
2023/04/04 07:02:33;;;;;;;2.78;2.58;;;0.30;99.90;;;;;;5024621;28;20594;-40
2023/04/04 07:04:59;;;;;;;5.38;3.40;;;0.30;99.90;;;;;;5024478;28;20373;-40
2023/04/04 07:07:25;;;;;;;5.05;3.30;;;0.40;99.90;;;;;;5020775;28;20026;-40
2023/04/04 07:09:50;;;;;;;3.28;3.08;;;0.50;99.90;;;;;;5026290;28;20017;-42
2023/04/04 07:12:16;;;;;;;7.07;3.95;;;0.50;99.90;;;;;;5029511;28;20042;-42
2023/04/04 07:14:42;;;;;;;4.18;3.10;;;0.50;99.90;;;;;;5028744;28;20067;-40
2023/04/04 07:17:08;;;;;;;8.38;3.50;;;0.40;99.90;;;;;;5025613;28;20072;-40
2023/04/04 07:19:33;;;;;;;6.53;3.22;;;0.50;99.90;;;;;;5022741;28;20128;-40
2023/04/04 07:21:59;;;;;;;6.40;3.70;;;0.40;99.90;;;;;;5026850;28;20053;-40
2023/04/04 07:24:25;;;;;;;4.10;3.50;;;0.60;99.90;;;;;;5030205;28;20120;-40
2023/04/04 07:26:50;;;;;;;5.22;3.63;;;0.70;99.90;;;;;;5028327;28;20566;-40
2023/04/04 07:29:16;;;;;;;5.43;3.67;;;0.80;99.90;;;;;;5026870;28;20147;-40
2023/04/04 07:31:42;;;;;;;7.22;4.10;;;0.90;99.90;;;;;;5029002;28;20041;-40
2023/04/04 07:34:07;;;;;;;4.70;3.33;;;0.90;99.90;;;;;;5024766;28;20087;-40
2023/04/04 07:36:33;;;;;;;5.13;3.30;;;1.00;99.90;;;;;;5023335;28;20026;-40
2023/04/04 07:38:59;;;;;;;7.15;3.72;;;1.10;99.90;;;;;;5023974;28;20030;-41
2023/04/04 07:41:25;;;;;;;6.28;3.35;;;1.20;99.90;;;;;;5026975;28;20483;-40
2023/04/04 07:43:51;;;;;;;5.78;3.47;;;1.30;99.90;;;;;;5032396;28;20029;-41
2023/04/04 07:46:16;;;;;;;5.07;3.63;;;1.40;99.40;;;;;;5020718;28;20272;-40
2023/04/04 07:48:42;;;;;;;4.25;3.15;;;1.30;97.80;;;;;;5024584;28;20166;-40
2023/04/04 07:51:08;;;;;;;6.65;3.10;;;1.30;97.70;;;;;;5026920;28;20042;-40
2023/04/04 07:53:33;;;;;;;4.85;3.38;;;1.40;97.00;;;;;;5027287;28;20022;-40
2023/04/04 07:56:05;;;;;;;4.63;3.50;;;1.50;98.40;;;;;;5026793;28;20497;-40
2023/04/04 07:58:34;;;;;;;5.05;3.53;;;1.60;95.60;;;;;;5024945;28;20091;-40
2023/04/04 08:01:00;;;;;;;4.93;3.90;;;1.70;94.00;;;;;;5022202;28;20043;-40
2023/04/04 08:03:26;;;;;;;3.85;3.45;;;1.70;97.00;;;;;;5025764;28;20461;-40
2023/04/04 08:05:51;;;;;;;5.60;3.45;;;1.80;93.50;;;;;;5020959;28;20041;-40
2023/04/04 08:08:17;;;;;;;4.30;3.90;;;1.60;92.50;;;;;;5033054;28;20029;-40
2023/04/04 08:10:44;;;;;;;4.05;3.65;;;1.70;95.00;;;;;;5020915;28;20125;-40
2023/04/04 08:13:10;;;;;;;5.53;3.53;;;1.80;95.10;;;;;;5029936;28;20099;-40
2023/04/04 08:15:36;;;;;;;4.00;3.50;;;1.90;92.50;;;;;;5026487;28;20028;-40
2023/04/04 08:18:02;;;;;;;4.10;3.47;;;2.00;95.80;;;;;;5025089;28;20390;-40
2023/04/04 08:20:28;;;;;;;5.20;3.85;;;2.00;93.20;;;;;;5022652;28;20041;-40
2023/04/04 08:22:53;;;;;;;3.95;3.25;;;2.10;97.30;;;;;;5025441;28;20109;-40
2023/04/04 08:25:19;;;;;;;4.28;3.53;;;2.00;83.30;;;;;;5022226;28;20120;-40
2023/04/04 08:27:45;;;;;;;3.20;2.90;;;1.90;84.60;;;;;;5024085;28;20402;-40
2023/04/04 08:30:12;;;;;;;4.20;3.80;;;1.90;83.90;;;;;;5020847;28;20040;-40
2023/04/04 08:32:38;;;;;;;3.60;3.30;;;2.10;92.10;;;;;;5020802;28;20033;-40
2023/04/04 08:35:04;;;;;;;4.35;3.85;;;2.40;86.70;;;;;;5025257;28;20037;-40
2023/04/04 08:37:30;;;;;;;4.60;3.47;;;2.40;82.30;;;;;;5024259;28;20026;-40
2023/04/04 08:39:56;;;;;;;5.28;3.85;;;2.00;80.40;;;;;;5022726;28;20029;-40
2023/04/04 08:42:23;;;;;;;4.00;3.58;;;1.90;86.60;;;;;;5029237;28;20513;-40
2023/04/04 08:44:53;;;;;;;4.28;3.85;;;1.80;85.60;;;;;;5024034;28;20033;-40
2023/04/04 08:47:20;;;;;;;5.10;4.25;;;2.00;87.60;;;;;;5023169;28;20037;-40
2023/04/04 08:49:48;;;;;;;5.53;4.00;;;2.40;82.40;;;;;;5021758;28;20045;-39
2023/04/04 08:52:19;;;;;;;5.65;4.05;;;2.30;80.00;;;;;;5025829;28;20108;-40
2023/04/04 08:54:46;;;;;;;5.68;4.13;;;2.10;87.10;;;;;;5014638;28;20252;-40
2023/04/04 08:57:12;;;;;;;5.43;3.47;;;2.30;90.40;;;;;;5020212;28;20461;-40
2023/04/04 08:59:38;;;;;;;4.90;4.30;;;2.60;87.30;;;;;;5019336;28;20034;-40
2023/04/04 09:02:10;;;;;;;4.50;3.97;;;2.80;92.20;;;;;;5018613;28;20076;-40
2023/04/04 09:04:38;;;;;;;4.53;3.80;;;2.60;77.70;;;;;;5020263;28;20056;-40
2023/04/04 09:07:05;;;;;;;4.60;3.95;;;2.50;81.60;;;;;;5020218;28;20747;-40
2023/04/04 09:09:32;;;;;;;5.25;3.35;;;2.40;80.10;;;;;;5028427;28;20457;-40
2023/04/04 09:12:00;;;;;;;3.75;3.20;;;2.40;74.80;;;;;;5014282;28;20053;-40
2023/04/04 09:14:28;;;;;;;4.47;3.67;;;2.30;72.70;;;;;;5022599;28;20060;-40
2023/04/04 09:16:54;;;;;;;4.03;3.63;;;2.40;82.20;;;;;;5016134;28;20049;-40
2023/04/04 09:19:20;;;;;;;5.10;3.42;;;2.90;80.10;;;;;;5018536;28;20036;-40
2023/04/04 09:21:47;;;;;;;3.33;3.03;;;3.10;72.10;;;;;;5025661;28;20021;-40
2023/04/04 09:24:13;;;;;;;6.65;4.15;;;3.10;73.40;;;;;;5022188;28;20040;-40
2023/04/04 09:26:52;;;;;;;4.78;3.70;;;2.90;79.10;;;;;;5022913;28;20033;-40
2023/04/04 09:29:20;;;;;;;3.60;3.30;;;2.70;71.80;;;;;;5027976;28;20387;-40
2023/04/04 09:31:48;;;;;;;6.60;4.53;;;2.70;82.30;;;;;;5019007;28;20592;-40
2023/04/04 09:34:15;;;;;;;4.90;3.70;;;3.00;81.20;;;;;;5021738;28;20037;-40
2023/04/04 09:36:41;;;;;;;3.72;3.42;;;3.40;72.10;;;;;;5027013;28;20418;-40
2023/04/04 09:39:07;;;;;;;3.92;3.50;;;3.20;74.90;;;;;;5021553;28;20033;-40
2023/04/04 09:41:33;;;;;;;3.42;3.13;;;3.50;73.10;;;;;;5018150;28;20025;-40
2023/04/04 09:44:00;;;;;;;3.97;3.63;;;3.80;67.00;;;;;;5030058;28;20083;-40
2023/04/04 09:46:26;;;;;;;2.90;2.70;;;4.10;70.10;;;;;;5020462;28;20033;-40
2023/04/04 09:48:54;;;;;;;4.22;3.83;;;3.70;70.30;;;;;;5028456;28;20113;-41
2023/04/04 09:51:19;;;;;;;5.70;3.70;;;3.70;71.80;;;;;;5023377;28;20148;-40
2023/04/04 09:53:48;;;;;;;4.45;4.05;;;3.50;66.40;;;;;;5028332;28;20739;-40
2023/04/04 09:56:14;;;;;;;4.20;3.88;;;3.40;69.20;;;;;;5022290;28;20033;-40
2023/04/04 09:58:45;;;;;;;4.35;3.72;;;3.10;74.50;;;;;;5028392;28;20033;-40
2023/04/04 10:01:12;;;;;;;6.03;4.05;;;2.90;71.30;;;;;;5020451;28;20061;-40
2023/04/04 10:03:38;;;;;;;4.15;3.75;;;2.90;73.40;;;;;;5027408;28;20076;-40
2023/04/04 10:06:06;;;;;;;4.45;4.05;;;3.40;79.30;;;;;;5027617;28;20028;-40
2023/04/04 10:08:33;;;;;;;4.00;3.63;;;3.70;79.20;;;;;;5028746;28;20025;-43
2023/04/04 10:11:02;;;;;;;4.72;3.85;;;3.80;73.80;;;;;;5036114;28;20800;-40
2023/04/04 10:13:34;;;;;;;5.15;4.03;;;3.50;68.90;;;;;;5021862;28;20029;-40
2023/04/04 10:16:02;;;;;;;4.30;3.90;;;3.90;78.10;;;;;;5029763;28;20025;-40
2023/04/04 10:18:33;;;;;;;6.70;3.80;;;4.10;73.60;;;;;;5022532;28;20045;-40
2023/04/04 10:21:08;;;;;;;6.20;4.10;;;4.10;70.30;;;;;;5028750;28;20525;-40
2023/04/04 10:23:35;;;;;;;3.95;3.53;;;4.40;80.10;;;;;;5031091;28;20509;-40
2023/04/04 10:26:01;;;;;;;4.78;4.32;;;4.50;75.70;;;;;;5027167;28;20095;-40
2023/04/04 10:28:27;;;;;;;4.35;3.65;;;4.40;73.20;;;;;;5028574;28;20034;-45
2023/04/04 10:31:01;;;;;;;4.43;3.97;;;4.30;65.30;;;;;;5024982;28;20502;-40
2023/04/04 10:33:56;;;;;;;4.30;3.90;;;4.20;69.50;;;;;;5024212;28;20057;-41
2023/04/04 10:36:23;;;;;;;3.80;3.42;;;3.60;73.30;;;;;;4990099;28;20499;-40
2023/04/04 10:39:17;;;;;;;5.75;3.97;;;3.50;71.90;;;;;;5023833;28;20030;-40
2023/04/04 10:41:47;;;;;;;4.95;3.25;;;3.60;71.80;;;;;;5019488;28;20032;-40
2023/04/04 10:44:49;;;;;;;4.22;3.83;;;3.40;74.10;;;;;;5029595;28;20034;-40
2023/04/04 10:47:21;;;;;;;7.35;3.67;;;3.70;74.20;;;;;;4968482;28;20560;-40
2023/04/04 10:49:49;;;;;;;4.32;3.38;;;3.40;70.00;;;;;;5015996;28;20487;-39
2023/04/04 10:52:21;;;;;;;4.53;3.88;;;3.30;68.60;;;;;;5029983;28;20028;-40
2023/04/04 10:54:49;;;;;;;5.38;3.85;;;3.60;74.30;;;;;;5027336;28;20140;-40
2023/04/04 10:57:15;;;;;;;;;;;3.40;72.60;;;;;;5028329;28;20111;-40
2023/04/04 11:00:00;;;;;;;4.40;3.78;;;3.50;76.10;;;;;;5028400;28;20408;-40
2023/04/04 11:02:51;;;;;;;4.05;3.72;;;3.40;72.10;;;;;;5017581;28;20030;-40
2023/04/04 11:05:24;;;;;;;6.68;3.30;;;3.20;74.90;;;;;;5030839;28;20029;-39
2023/04/04 11:07:58;;;;;;;5.13;3.67;;;3.30;73.20;;;;;;5021138;28;20494;-40
2023/04/04 11:10:29;;;;;;;5.00;3.70;;;3.20;69.20;;;;;;5022162;28;20029;-39
2023/04/04 11:13:03;;;;;;;4.28;3.55;;;3.60;69.10;;;;;;5018579;28;20021;-39
2023/04/04 11:16:20;;;;;;;4.32;3.53;;;3.50;73.20;;;;;;5023039;28;20109;-40
2023/04/04 11:18:46;;;;;;;4.38;3.97;;;3.90;82.20;;;;;;4964016;28;20469;-40
2023/04/04 11:21:23;;;;;;;4.00;3.60;;;3.90;72.60;;;;;;5012413;28;20041;-40
2023/04/04 11:23:58;;;;;;;3.88;3.50;;;4.00;77.20;;;;;;5019083;28;20371;-40
2023/04/04 11:26:26;;;;;;;4.97;3.80;;;4.40;72.50;;;;;;5027734;28;20422;-41
2023/04/04 11:28:56;;;;;;;;;;;4.10;65.70;;;;;;5026637;28;20022;-38
2023/04/04 11:31:24;;;;;;;3.88;3.47;;;3.90;72.80;;;;;;5017793;28;19921;-38
2023/04/04 11:34:08;;;;;;;5.13;4.30;;;3.90;70.80;;;;;;5025775;28;20032;-39
2023/04/04 11:36:36;;;;;;;3.60;3.30;;;3.90;69.00;;;;;;5025289;28;20041;-38
2023/04/04 11:39:21;;;;;;;4.43;3.83;;;3.60;69.20;;;;;;5021527;28;20467;-39
2023/04/04 11:41:47;;;;;;;4.55;3.97;;;4.10;71.20;;;;;;5024106;28;20101;-39
2023/04/04 11:44:14;;;;;;;4.22;3.75;;;4.20;90.70;;;;;;5020505;28;20128;-39
2023/04/04 11:46:41;;;;;;;4.00;3.70;;;4.50;90.00;;;;;;5019915;28;20442;-40
2023/04/04 11:49:06;;;;;;;5.20;4.15;;;4.60;71.90;;;;;;5027313;28;20391;-40
2023/04/04 11:51:32;;;;;;;4.50;3.28;;;4.60;76.80;;;;;;5029523;28;20075;-39
2023/04/04 11:53:58;;;;;;;3.58;3.22;;;4.80;69.00;;;;;;5023937;28;20033;-39
2023/04/04 11:56:24;;;;;;;4.05;2.95;;;4.80;65.30;;;;;;5022079;28;20026;-39
2023/04/04 11:58:50;;;;;;;4.75;3.50;;;4.60;62.60;;;;;;5023873;28;20025;-39
2023/04/04 12:01:18;;;;;;;5.22;3.72;;;4.60;64.50;;;;;;5024102;28;20030;-39
2023/04/04 12:03:43;;;;;;;4.03;3.60;;;4.50;61.10;;;;;;5037143;28;20033;-39
2023/04/04 12:06:10;;;;;;;3.67;2.80;;;4.40;59.90;;;;;;5022901;28;20033;-39
2023/04/04 12:08:38;;;;;;;5.65;3.55;;;4.40;69.10;;;;;;5032134;28;20052;-39
2023/04/04 12:11:08;;;;;;;3.80;3.40;;;4.90;77.70;;;;;;5020583;28;20491;-39
2023/04/04 12:13:33;;;;;;;5.97;3.70;;;4.50;70.50;;;;;;5021251;28;20021;-39
2023/04/04 12:15:59;;;;;;;5.45;3.88;;;4.20;74.20;;;;;;5039945;28;20026;-39
2023/04/04 12:18:26;;;;;;;4.72;3.65;;;4.40;79.70;;;;;;5026919;28;20104;-39
2023/04/04 12:20:52;;;;;;;2.95;2.63;;;4.50;70.50;;;;;;5026978;28;20100;-39
2023/04/04 12:23:18;;;;;;;4.13;3.72;;;4.60;60.70;;;;;;5019517;28;20040;-39
2023/04/04 12:25:48;;;;;;;3.47;3.17;;;4.50;66.60;;;;;;5023019;28;20096;-40
2023/04/04 12:28:14;;;;;;;4.35;3.75;;;4.90;69.50;;;;;;5022374;28;20069;-39
2023/04/04 12:30:40;;;;;;;5.13;4.18;;;4.90;77.90;;;;;;5021927;28;20029;-38
2023/04/04 12:33:06;;;;;;;4.78;3.97;;;5.30;79.50;;;;;;5029191;28;20024;-39
2023/04/04 12:35:32;;;;;;;4.43;3.40;;;5.00;68.20;;;;;;5021474;28;20116;-40
2023/04/04 12:38:09;;;;;;;4.30;3.28;;;4.70;63.70;;;;;;5024768;28;20099;-40
2023/04/04 12:40:37;;;;;;;4.70;3.90;;;4.80;64.60;;;;;;5024940;28;20454;-39
2023/04/04 12:43:16;;;;;;;3.47;3.17;;;4.80;66.50;;;;;;5021974;28;20040;-39
2023/04/04 12:45:43;;;;;;;6.07;3.55;;;4.50;65.10;;;;;;5025782;28;20033;-39
2023/04/04 12:48:13;;;;;;;5.85;3.85;;;4.80;75.70;;;;;;5028909;28;20041;-39
2023/04/04 12:50:50;;;;;;;3.97;3.65;;;5.20;80.50;;;;;;5020576;28;20042;-39
2023/04/04 12:53:18;;;;;;;4.10;3.63;;;4.60;63.50;;;;;;5029069;28;20428;-39